createdAt,value
2023-05-08T00:01:00.188Z,1.11
2023-05-08T00:03:28.289Z,1.05
2023-05-08T00:05:56.744Z,1.03
2023-05-08T00:08:26.061Z,0.98
2023-05-08T00:10:53.798Z,0.91
2023-05-08T00:13:21.663Z,0.85
2023-05-08T00:15:49.537Z,0.79
2023-05-08T00:18:17.457Z,0.69
2023-05-08T00:20:45.392Z,0.62
2023-05-08T00:23:13.305Z,0.55
2023-05-08T00:25:42.566Z,0.51
2023-05-08T00:28:10.430Z,0.58
2023-05-08T00:30:38.237Z,0.67
2023-05-08T00:33:06.136Z,0.69
2023-05-08T00:35:33.995Z,0.63
2023-05-08T00:38:01.772Z,0.56
2023-05-08T00:40:29.633Z,0.50
2023-05-08T00:42:59.003Z,0.42
2023-05-08T00:45:33.631Z,0.36
2023-05-08T00:48:01.565Z,0.28
2023-05-08T00:50:30.087Z,0.22
2023-05-08T00:52:59.204Z,0.16
2023-05-08T00:55:27.129Z,0.12
2023-05-08T00:57:55.015Z,0.04
2023-05-08T01:00:24.689Z,0.02
2023-05-08T01:02:53.192Z,-0.03
2023-05-08T01:05:21.300Z,-0.09
2023-05-08T01:07:49.394Z,-0.10
2023-05-08T01:10:17.506Z,-0.10
2023-05-08T01:13:00.344Z,-0.14
2023-05-08T01:15:33.277Z,-0.18
2023-05-08T01:18:12.442Z,-0.11
2023-05-08T01:20:46.685Z,-0.15
2023-05-08T01:23:44.028Z,-0.26
2023-05-08T01:26:48.786Z,-0.18
2023-05-08T01:29:49.110Z,-0.23
2023-05-08T01:32:24.762Z,-0.26
2023-05-08T01:35:01.702Z,-0.29
2023-05-08T01:37:33.864Z,-0.31
2023-05-08T01:40:11.776Z,-0.36
2023-05-08T01:42:50.364Z,-0.38
2023-05-08T01:45:26.760Z,-0.41
2023-05-08T01:48:06.149Z,-0.47
2023-05-08T01:50:39.511Z,-0.47
2023-05-08T01:53:13.782Z,-0.54
2023-05-08T01:55:44.275Z,-0.53
2023-05-08T01:58:13.744Z,-0.56
2023-05-08T02:00:44.068Z,-0.62
2023-05-08T02:03:15.253Z,-0.65
2023-05-08T02:05:45.412Z,-0.64
2023-05-08T02:08:15.945Z,-0.65
2023-05-08T02:10:44.643Z,-0.65
2023-05-08T02:13:19.129Z,-0.68
2023-05-08T02:15:49.385Z,-0.70
2023-05-08T02:18:21.622Z,-0.80
2023-05-08T02:20:51.759Z,-0.77
2023-05-08T02:23:20.507Z,-0.82
2023-05-08T02:25:49.440Z,-0.87
2023-05-08T02:28:18.370Z,-0.90
2023-05-08T02:30:47.408Z,-0.94
2023-05-08T02:33:20.742Z,-1.08
2023-05-08T02:35:50.752Z,-1.00
2023-05-08T02:38:21.772Z,-1.01
2023-05-08T02:40:56.538Z,-1.01
2023-05-08T02:43:24.979Z,-1.03
2023-05-08T02:46:11.822Z,-1.05
2023-05-08T02:48:50.192Z,-1.16
2023-05-08T02:51:23.296Z,-1.07
2023-05-08T02:53:55.940Z,-1.08
2023-05-08T02:56:33.856Z,-1.08
2023-05-08T02:59:11.371Z,-1.08
2023-05-08T03:01:45.307Z,-1.06
2023-05-08T03:04:24.181Z,-1.05
2023-05-08T03:06:55.049Z,-1.01
2023-05-08T03:09:26.399Z,-0.96
2023-05-08T03:12:03.812Z,-0.89
2023-05-08T03:14:36.900Z,-0.84
2023-05-08T03:17:08.568Z,-0.81
2023-05-08T03:19:40.327Z,-0.81
2023-05-08T03:22:09.862Z,-0.75
2023-05-08T03:24:39.695Z,-0.71
2023-05-08T03:27:09.945Z,-0.66
2023-05-08T03:29:40.494Z,-0.63
2023-05-08T03:32:09.522Z,-0.60
2023-05-08T03:34:40.411Z,-0.59
2023-05-08T03:37:08.931Z,-0.55
2023-05-08T03:39:37.091Z,-0.52
2023-05-08T03:42:05.199Z,-0.47
2023-05-08T03:44:34.515Z,-0.42
2023-05-08T03:47:04.355Z,-0.36
2023-05-08T03:49:34.662Z,-0.29
2023-05-08T03:52:05.169Z,-0.24
2023-05-08T03:54:32.950Z,-0.12
2023-05-08T03:57:00.924Z,0.01
2023-05-08T03:59:37.482Z,0.12
2023-05-08T04:02:14.170Z,0.25
2023-05-08T04:04:43.048Z,0.39
2023-05-08T04:07:20.386Z,0.56
2023-05-08T04:09:59.285Z,0.71
2023-05-08T04:12:34.532Z,0.87
2023-05-08T04:15:05.913Z,1.01
2023-05-08T04:17:39.191Z,1.12
2023-05-08T04:20:09.883Z,1.30
2023-05-08T04:22:41.672Z,1.46
2023-05-08T04:25:11.728Z,1.76
2023-05-08T04:27:40.328Z,2.24
2023-05-08T04:30:11.488Z,2.84
2023-05-08T04:32:41.372Z,3.27
2023-05-08T04:35:11.402Z,3.57
2023-05-08T04:37:42.834Z,3.89
2023-05-08T04:40:11.763Z,4.27
2023-05-08T04:42:42.927Z,4.62
2023-05-08T04:45:11.840Z,4.93
2023-05-08T04:47:42.722Z,5.32
2023-05-08T04:50:12.009Z,5.63
2023-05-08T04:52:41.442Z,5.93
2023-05-08T04:55:11.371Z,6.19
2023-05-08T04:57:39.729Z,6.39
2023-05-08T05:00:08.704Z,6.62
2023-05-08T05:02:36.462Z,6.87
2023-05-08T05:05:04.370Z,7.10
2023-05-08T05:07:32.274Z,7.32
2023-05-08T05:10:02.149Z,7.40
2023-05-08T05:12:29.858Z,7.52
2023-05-08T05:14:57.571Z,7.65
2023-05-08T05:17:25.389Z,7.74
2023-05-08T05:19:53.591Z,7.96
2023-05-08T05:22:21.394Z,8.14
2023-05-08T05:24:49.148Z,8.34
2023-05-08T05:27:21.163Z,8.57
2023-05-08T05:29:49.229Z,8.65
2023-05-08T05:32:17.323Z,8.73
2023-05-08T05:34:45.199Z,8.71
2023-05-08T05:37:13.127Z,8.83
2023-05-08T05:39:41.046Z,9.03
2023-05-08T05:42:08.860Z,9.28
2023-05-08T05:44:38.052Z,9.43
2023-05-08T05:47:06.282Z,9.59
2023-05-08T05:49:34.511Z,9.80
2023-05-08T05:52:02.462Z,9.86
2023-05-08T05:54:33.283Z,10.05
2023-05-08T05:57:01.119Z,10.42
2023-05-08T05:59:28.908Z,10.96
2023-05-08T06:01:58.065Z,11.10
2023-05-08T06:04:26.445Z,11.23
2023-05-08T06:06:54.383Z,11.45
2023-05-08T06:09:22.141Z,11.52
2023-05-08T06:11:49.899Z,11.58
2023-05-08T06:14:17.626Z,11.96
2023-05-08T06:16:45.985Z,11.97
2023-05-08T06:19:15.222Z,12.02
2023-05-08T06:21:43.196Z,12.26
2023-05-08T06:24:11.822Z,12.09
2023-05-08T06:26:39.574Z,12.51
2023-05-08T06:29:07.403Z,12.79
2023-05-08T06:31:35.400Z,13.04
2023-05-08T06:34:03.311Z,13.14
2023-05-08T06:36:32.588Z,13.50
2023-05-08T06:39:00.702Z,13.78
2023-05-08T06:41:28.594Z,13.85
2023-05-08T06:43:56.367Z,14.29
2023-05-08T06:46:24.216Z,14.31
2023-05-08T06:48:52.075Z,14.64
2023-05-08T06:51:23.068Z,14.62
2023-05-08T06:53:52.366Z,14.60
2023-05-08T06:56:20.183Z,14.55
2023-05-08T06:59:00.557Z,14.74
2023-05-08T07:01:35.696Z,15.10
2023-05-08T07:04:03.669Z,15.41
2023-05-08T07:06:31.980Z,15.57
2023-05-08T07:09:01.166Z,15.49
2023-05-08T07:11:29.011Z,15.44
2023-05-08T07:13:56.925Z,15.39
2023-05-08T07:16:24.824Z,15.75
2023-05-08T07:18:52.620Z,16.04
2023-05-08T07:21:21.319Z,16.37
2023-05-08T07:23:51.724Z,16.71
2023-05-08T07:26:21.503Z,17.28
2023-05-08T07:28:50.784Z,17.63
2023-05-08T07:31:18.610Z,17.60
2023-05-08T07:33:47.820Z,17.81
2023-05-08T07:36:15.777Z,17.55
2023-05-08T07:38:43.531Z,17.53
2023-05-08T07:41:11.550Z,17.52
2023-05-08T07:43:40.961Z,17.64
2023-05-08T07:46:09.903Z,16.92
2023-05-08T07:48:37.688Z,16.88
2023-05-08T07:51:06.110Z,17.15
2023-05-08T07:53:33.990Z,17.47
2023-05-08T07:56:01.743Z,17.68
2023-05-08T07:58:29.466Z,17.56
2023-05-08T08:24:54.178Z,19.14
2023-05-08T08:27:23.136Z,19.39
2023-05-08T08:29:52.541Z,19.93
2023-05-08T08:32:26.554Z,20.18
2023-05-08T08:34:54.392Z,20.71
2023-05-08T08:37:22.330Z,21.12
2023-05-08T08:39:52.508Z,21.13
2023-05-08T08:42:20.317Z,21.30
2023-05-08T08:44:48.142Z,21.98
2023-05-08T08:47:18.171Z,21.99
2023-05-08T08:49:49.561Z,22.46
2023-05-08T08:52:23.963Z,22.49
2023-05-08T08:54:54.203Z,22.50
2023-05-08T08:57:24.340Z,22.70
2023-05-08T08:59:54.098Z,23.05
2023-05-08T09:02:23.592Z,23.59
2023-05-08T09:04:51.662Z,23.71
2023-05-08T09:07:19.667Z,23.84
2023-05-08T09:09:48.755Z,24.03
2023-05-08T09:12:18.272Z,24.30
2023-05-08T09:14:46.125Z,24.30
2023-05-08T09:17:14.191Z,24.49
2023-05-08T09:19:42.356Z,24.66
2023-05-08T09:22:10.853Z,24.35
2023-05-08T09:25:06.575Z,24.43
2023-05-08T09:27:36.832Z,25.11
2023-05-08T09:30:07.161Z,24.85
2023-05-08T09:32:38.931Z,25.08
2023-05-08T09:35:12.770Z,25.52
2023-05-08T09:37:44.220Z,26.41
2023-05-08T09:40:19.867Z,26.38
2023-05-08T09:42:50.000Z,26.04
2023-05-08T09:45:29.275Z,26.39
2023-05-08T09:47:57.248Z,26.86
2023-05-08T09:50:25.679Z,26.70
2023-05-08T09:52:53.602Z,27.13
2023-05-08T09:55:21.629Z,27.14
2023-05-08T09:57:56.616Z,27.25
2023-05-08T10:00:25.341Z,27.44
2023-05-08T10:02:58.400Z,27.30
2023-05-08T10:05:29.742Z,28.35
2023-05-08T10:07:58.059Z,28.53
2023-05-08T10:10:30.863Z,27.77
2023-05-08T10:13:00.135Z,27.77
2023-05-08T10:15:31.125Z,27.41
2023-05-08T10:18:04.628Z,27.41
2023-05-08T10:20:33.645Z,27.24
2023-05-08T10:23:03.378Z,28.13
2023-05-08T10:28:33.149Z,27.92
2023-05-08T10:31:02.100Z,28.61
2023-05-08T10:33:32.541Z,28.26
2023-05-08T10:36:01.558Z,28.61
2023-05-08T10:38:32.430Z,29.21
2023-05-08T10:41:02.265Z,28.82
2023-05-08T10:43:32.108Z,28.63
2023-05-08T10:46:08.506Z,29.08
2023-05-08T10:48:44.076Z,30.02
2023-05-08T10:51:17.519Z,30.64
2023-05-08T10:53:51.845Z,29.06
2023-05-08T10:56:19.668Z,29.47
2023-05-08T10:58:57.213Z,29.72
2023-05-08T11:01:26.343Z,30.24
2023-05-08T11:03:55.919Z,30.26
2023-05-08T11:06:46.280Z,30.17
2023-05-08T11:09:22.888Z,30.77
2023-05-08T11:12:05.052Z,30.46
2023-05-08T11:14:36.063Z,30.75
2023-05-08T11:17:06.532Z,31.41
2023-05-08T11:19:34.601Z,30.84
2023-05-08T11:22:16.291Z,30.91
2023-05-08T11:24:50.257Z,29.78
2023-05-08T11:27:18.406Z,28.96
2023-05-08T11:30:23.921Z,28.97
2023-05-08T11:33:16.714Z,28.65
2023-05-08T11:35:50.878Z,29.11
2023-05-08T11:38:21.262Z,29.73
2023-05-08T11:40:53.205Z,29.06
2023-05-08T11:43:28.110Z,28.15
2023-05-08T11:46:01.798Z,28.14
2023-05-08T11:48:29.624Z,28.82
2023-05-08T11:50:57.856Z,29.93
2023-05-08T11:53:25.690Z,30.26
2023-05-08T11:55:54.435Z,30.48
2023-05-08T11:58:22.955Z,30.79
2023-05-08T12:00:51.250Z,31.19
2023-05-08T12:03:23.531Z,31.67
2023-05-08T12:05:54.418Z,31.29
2023-05-08T12:08:22.213Z,31.22
2023-05-08T12:10:53.864Z,31.94
2023-05-08T12:13:22.867Z,31.47
2023-05-08T12:15:53.266Z,31.05
2023-05-08T12:18:23.331Z,30.94
2023-05-08T12:20:54.495Z,30.15
2023-05-08T12:23:22.287Z,30.67
2023-05-08T12:25:55.133Z,31.14
2023-05-08T12:28:24.000Z,30.81
2023-05-08T12:30:52.128Z,30.85
2023-05-08T12:33:20.153Z,31.41
2023-05-08T12:35:49.625Z,31.05
2023-05-08T12:38:17.630Z,31.35
2023-05-08T12:40:49.170Z,31.31
2023-05-08T12:43:17.011Z,31.04
2023-05-08T12:45:44.851Z,30.70
2023-05-08T12:48:13.938Z,29.71
2023-05-08T12:50:43.630Z,29.98
2023-05-08T12:53:14.736Z,29.73
2023-05-08T12:55:52.776Z,29.66
2023-05-08T12:58:22.398Z,30.10
2023-05-08T13:00:52.085Z,29.03
2023-05-08T13:03:24.858Z,28.68
2023-05-08T13:05:53.996Z,29.43
2023-05-08T13:08:31.095Z,29.43
2023-05-08T13:10:58.876Z,29.30
2023-05-08T13:13:28.184Z,30.01
2023-05-08T13:15:56.836Z,29.20
2023-05-08T13:18:27.483Z,28.90
2023-05-08T13:20:55.435Z,29.28
2023-05-08T13:23:27.011Z,29.39
2023-05-08T13:25:56.526Z,30.26
2023-05-08T13:28:25.803Z,30.19
2023-05-08T13:30:53.627Z,29.89
2023-05-08T13:33:21.446Z,29.87
2023-05-08T13:35:49.334Z,29.08
2023-05-08T13:38:17.151Z,29.19
2023-05-08T13:40:46.874Z,29.02
2023-05-08T13:43:14.667Z,28.92
2023-05-08T13:45:42.539Z,29.32
2023-05-08T13:48:10.405Z,29.36
2023-05-08T13:50:38.186Z,29.13
2023-05-08T13:53:06.166Z,28.86
2023-05-08T13:55:33.992Z,29.25
2023-05-08T13:58:03.466Z,29.88
2023-05-08T14:00:31.249Z,29.80
2023-05-08T14:02:59.055Z,29.88
2023-05-08T14:05:27.052Z,29.58
2023-05-08T14:07:54.772Z,29.33
2023-05-08T14:10:22.865Z,28.04
2023-05-08T14:12:50.992Z,28.04
2023-05-08T14:15:20.406Z,27.64
2023-05-08T14:17:48.407Z,27.56
2023-05-08T14:20:16.267Z,26.37
2023-05-08T14:22:44.168Z,27.21
2023-05-08T14:25:12.407Z,26.86
2023-05-08T14:27:40.455Z,27.18
2023-05-08T14:30:09.905Z,27.07
2023-05-08T14:32:39.152Z,27.43
2023-05-08T14:35:10.327Z,28.14
2023-05-08T14:37:38.763Z,28.16
2023-05-08T14:40:07.972Z,28.63
2023-05-08T14:42:36.567Z,28.79
2023-05-08T14:45:04.886Z,28.06
2023-05-08T14:47:33.078Z,28.03
2023-05-08T14:50:02.891Z,27.34
2023-05-08T14:52:30.690Z,27.70
2023-05-08T14:54:59.247Z,27.21
2023-05-08T14:57:27.233Z,26.25
2023-05-08T14:59:56.207Z,26.40
2023-05-08T15:02:24.318Z,26.25
2023-05-08T15:04:52.352Z,25.46
2023-05-08T15:07:21.657Z,25.53
2023-05-08T15:09:49.545Z,25.38
2023-05-08T15:12:17.369Z,25.71
2023-05-08T15:14:45.150Z,24.95
2023-05-08T15:17:12.986Z,23.99
2023-05-08T15:19:40.776Z,24.29
2023-05-08T15:22:08.603Z,24.05
2023-05-08T15:24:37.778Z,23.47
2023-05-08T15:27:05.589Z,23.00
2023-05-08T15:29:33.538Z,23.61
2023-05-08T15:32:01.473Z,24.01
2023-05-08T15:34:33.009Z,23.38
2023-05-08T15:37:01.061Z,23.23
2023-05-08T15:39:28.922Z,23.29
2023-05-08T15:41:58.042Z,22.92
2023-05-08T15:44:28.738Z,22.36
2023-05-08T15:47:02.038Z,22.38
2023-05-08T15:49:29.859Z,21.98
2023-05-08T15:51:57.702Z,21.50
2023-05-08T15:54:25.750Z,21.78
2023-05-08T15:56:53.600Z,22.32
2023-05-08T15:59:22.770Z,22.50
2023-05-08T16:01:52.054Z,22.76
2023-05-08T16:04:20.824Z,23.13
2023-05-08T16:06:48.554Z,22.90
2023-05-08T16:09:16.435Z,22.56
2023-05-08T16:11:44.216Z,22.13
2023-05-08T16:14:12.094Z,21.57
2023-05-08T16:16:41.486Z,20.82
2023-05-08T16:19:09.465Z,20.70
2023-05-08T16:21:37.324Z,20.36
2023-05-08T16:24:05.574Z,19.81
2023-05-08T16:26:33.428Z,19.02
2023-05-08T16:29:01.498Z,18.61
2023-05-08T16:31:29.386Z,18.22
2023-05-08T16:33:58.659Z,17.70
2023-05-08T16:36:26.802Z,17.19
2023-05-08T16:38:54.644Z,16.72
2023-05-08T16:41:23.755Z,16.31
2023-05-08T16:43:51.718Z,15.88
2023-05-08T16:46:29.208Z,15.61
2023-05-08T16:49:01.469Z,15.47
2023-05-08T16:51:29.326Z,15.32
2023-05-08T16:53:58.080Z,15.08
2023-05-08T16:56:26.861Z,14.98
2023-05-08T16:58:54.648Z,14.82
2023-05-08T17:01:22.750Z,14.77
2023-05-08T17:03:50.790Z,14.71
2023-05-08T17:06:20.719Z,14.54
2023-05-08T17:08:48.473Z,14.33
2023-05-08T17:11:16.524Z,14.19
2023-05-08T17:13:46.173Z,14.16
2023-05-08T17:16:13.996Z,14.11
2023-05-08T17:18:41.940Z,13.99
2023-05-08T17:21:09.816Z,13.94
2023-05-08T17:23:39.095Z,13.83
2023-05-08T17:26:07.038Z,13.74
2023-05-08T17:28:34.878Z,13.63
2023-05-08T17:31:02.943Z,13.51
2023-05-08T17:33:30.926Z,13.40
2023-05-08T17:35:58.693Z,13.35
2023-05-08T17:38:26.523Z,13.24
2023-05-08T17:40:56.385Z,13.17
2023-05-08T17:43:24.414Z,13.04
2023-05-08T17:45:53.637Z,12.90
2023-05-08T17:48:22.404Z,12.82
2023-05-08T17:50:50.317Z,12.74
2023-05-08T17:53:19.999Z,12.65
2023-05-08T17:55:48.396Z,12.47
2023-05-08T17:58:17.536Z,12.42
2023-05-08T18:00:45.393Z,12.32
2023-05-08T18:03:13.210Z,12.20
2023-05-08T18:05:41.145Z,12.19
2023-05-08T18:08:09.564Z,12.06
2023-05-08T18:10:39.286Z,11.97
2023-05-08T18:13:07.216Z,11.89
2023-05-08T18:15:39.027Z,11.77
2023-05-08T18:18:06.947Z,11.71
2023-05-08T18:20:35.018Z,11.66
2023-05-08T18:23:02.826Z,11.49
2023-05-08T18:25:30.639Z,11.35
2023-05-08T18:27:59.031Z,11.33
2023-05-08T18:30:26.836Z,11.27
2023-05-08T18:32:55.940Z,11.24
2023-05-08T18:35:23.876Z,11.16
2023-05-08T18:37:51.686Z,11.03
2023-05-08T18:40:19.736Z,10.92
2023-05-08T18:42:48.489Z,10.79
2023-05-08T18:45:16.613Z,10.57
2023-05-08T18:47:44.420Z,10.53
2023-05-08T18:50:13.786Z,10.47
2023-05-08T18:52:41.755Z,10.52
2023-05-08T18:55:10.233Z,10.51
2023-05-08T18:57:38.071Z,10.48
2023-05-08T19:00:07.273Z,10.36
2023-05-08T19:02:35.310Z,10.28
2023-05-08T19:05:03.288Z,10.26
2023-05-08T19:07:32.464Z,10.23
2023-05-08T19:10:00.429Z,10.15
2023-05-08T19:12:28.222Z,10.17
2023-05-08T19:14:56.028Z,10.13
2023-05-08T19:17:23.861Z,9.89
2023-05-08T19:19:52.846Z,9.84
2023-05-08T19:22:20.866Z,9.84
2023-05-08T19:24:52.369Z,9.75
2023-05-08T19:27:20.079Z,9.71
2023-05-08T19:29:48.046Z,9.65
2023-05-08T19:32:16.041Z,9.65
2023-05-08T19:34:43.789Z,9.52
2023-05-08T19:37:11.560Z,9.46
2023-05-08T19:39:39.372Z,9.43
2023-05-08T19:42:10.274Z,9.30
2023-05-08T19:44:38.158Z,9.19
2023-05-08T19:47:06.108Z,9.00
2023-05-08T19:49:34.135Z,8.84
2023-05-08T19:52:02.078Z,8.75
2023-05-08T19:54:30.417Z,8.81
2023-05-08T19:56:58.346Z,8.77
2023-05-08T19:59:27.648Z,8.64
2023-05-08T20:01:55.618Z,8.52
2023-05-08T20:04:24.204Z,8.44
2023-05-08T20:06:52.103Z,8.46
2023-05-08T20:09:20.050Z,8.47
2023-05-08T20:11:48.131Z,8.20
2023-05-08T20:14:16.064Z,8.02
2023-05-08T20:16:45.553Z,7.96
2023-05-08T20:19:13.417Z,7.85
2023-05-08T20:21:41.231Z,7.88
2023-05-08T20:24:09.173Z,7.78
2023-05-08T20:26:37.379Z,7.61
2023-05-08T20:29:05.203Z,7.56
2023-05-08T20:31:33.117Z,7.50
2023-05-08T20:34:02.270Z,7.41
2023-05-08T20:36:30.095Z,7.37
2023-05-08T20:38:58.021Z,7.20
2023-05-08T20:41:25.893Z,7.09
2023-05-08T20:43:53.680Z,6.99
2023-05-08T20:46:21.733Z,6.95
2023-05-08T20:48:51.200Z,6.91
2023-05-08T20:51:20.362Z,6.80
2023-05-08T20:53:48.344Z,6.62
2023-05-08T20:56:18.869Z,6.58
2023-05-08T20:58:47.201Z,6.58
2023-05-08T21:01:15.009Z,6.48
2023-05-08T21:03:43.035Z,6.29
2023-05-08T21:06:11.666Z,6.16
2023-05-08T21:08:42.015Z,6.06
2023-05-08T21:11:09.963Z,6.07
2023-05-08T21:13:37.748Z,5.98
2023-05-08T21:16:07.504Z,5.77
2023-05-08T21:18:35.604Z,5.62
2023-05-08T21:21:03.683Z,5.51
2023-05-08T21:23:31.753Z,5.46
2023-05-08T21:26:01.380Z,5.36
2023-05-08T21:28:29.247Z,5.22
2023-05-08T21:30:57.282Z,5.08
2023-05-08T21:33:25.162Z,4.94
2023-05-08T21:35:52.958Z,4.87
2023-05-08T21:38:20.732Z,4.76
2023-05-08T21:40:48.514Z,4.62
2023-05-08T21:43:17.747Z,4.48
2023-05-08T21:45:45.589Z,4.35
2023-05-08T21:48:13.534Z,4.24
2023-05-08T21:50:41.500Z,4.13
2023-05-08T21:53:09.359Z,4.04
2023-05-08T21:55:37.334Z,3.95
2023-05-08T21:58:05.221Z,3.84
2023-05-08T22:00:34.396Z,3.74
2023-05-08T22:03:02.300Z,3.65
2023-05-08T22:05:30.234Z,3.38
2023-05-08T22:07:58.093Z,3.57
2023-05-08T22:10:26.037Z,3.49
2023-05-08T22:12:53.982Z,3.40
2023-05-08T22:15:29.565Z,3.37
2023-05-08T22:17:59.742Z,3.37
2023-05-08T22:20:27.783Z,3.31
2023-05-08T22:22:55.852Z,3.25
2023-05-08T22:25:25.177Z,3.23
2023-05-08T22:27:54.020Z,3.20
2023-05-08T22:30:22.105Z,3.18
2023-05-08T22:32:55.066Z,3.14
2023-05-08T22:35:26.885Z,3.07
2023-05-08T22:37:55.629Z,3.08
2023-05-08T22:40:23.718Z,2.97
2023-05-08T22:42:53.534Z,2.95
2023-05-08T22:45:21.455Z,2.87
2023-05-08T22:47:49.530Z,2.77
2023-05-08T22:50:17.530Z,2.75
2023-05-08T22:52:46.868Z,2.74
2023-05-08T22:55:15.508Z,2.73
2023-05-08T22:57:43.634Z,2.68
2023-05-08T23:00:12.677Z,2.69
2023-05-08T23:02:40.523Z,2.63
2023-05-08T23:05:09.483Z,2.70
2023-05-08T23:07:37.352Z,2.74
2023-05-08T23:10:07.476Z,2.72
2023-05-08T23:12:37.077Z,2.58
2023-05-08T23:15:05.693Z,2.56
2023-05-08T23:17:33.577Z,2.50
2023-05-08T23:20:01.518Z,2.50
2023-05-08T23:22:29.650Z,2.43
2023-05-08T23:24:57.456Z,2.59
2023-05-08T23:27:26.891Z,2.68
2023-05-08T23:29:54.791Z,2.87
2023-05-08T23:32:22.551Z,2.93
2023-05-08T23:34:50.531Z,2.88
2023-05-08T23:37:18.351Z,2.80
2023-05-08T23:39:46.216Z,2.72
2023-05-08T23:42:14.316Z,2.51
2023-05-08T23:44:43.513Z,2.51
2023-05-08T23:47:11.829Z,2.54
2023-05-08T23:49:40.045Z,2.54
2023-05-08T23:52:10.044Z,2.48
2023-05-08T23:54:37.965Z,2.50
2023-05-08T23:57:06.050Z,2.45
2023-05-08T23:59:34.094Z,2.50
